Time (yr/mo/day/hr) Wind Speed at 50 metres (Glencore Tower; km/hr) Wind Direction at 50 metres (Glencore Tower; degrees) Temperature (oC) SO2 Dispersion Conditions Mixing Height (m)
2020 10 26 01 7 140 0 Stable 126
2020 10 26 02 10 149 0 Slightly stable 383
2020 10 26 03 7 162 0 Slightly stable 223
2020 10 26 04 4 155 0 Stable 57
2020 10 26 05 4 136 0 Stable 57
2020 10 26 06 5 125 0 Stable 62
2020 10 26 07 5 119 0 Stable 64
2020 10 26 08 4 125 0 Slightly unstable 55
2020 10 26 09 2 132 0 Slightly unstable 381
2020 10 26 10 1 273 1 Slightly unstable 484
2020 10 26 11 4 320 2 Slightly unstable 584
2020 10 26 12 7 327 2 Neutral 716
2020 10 26 13 10 333 3 Neutral 868
2020 10 26 14 13 341 2 Slightly unstable 909
2020 10 26 15 15 348 1 Slightly unstable 925
2020 10 26 16 14 349 1 Slightly unstable 838
2020 10 26 17 10 349 0 Neutral 339
2020 10 26 18 10 336 0 Stable 306
2020 10 26 19 10 339 -1 Stable 294
2020 10 26 20 9 350 -1 Stable 236
2020 10 26 21 8 353 -1 Stable 182
2020 10 26 22 7 348 -1 Stable 139
2020 10 26 23 7 350 -2 Stable 123
2020 10 27 00 7 351 -2 Stable 129
2020 10 27 01 6 357 -2 Stable 68